| time (UTC) | temp C | wind direction | speed KPH | gust KPH | rain 1hr cm | rain 24hr cm | rain mn cm | humidity % | barometer mb |
| 20260905223422 | 12 | 181 | 3.2 | 8.0 | 0.00 | 0.25 | 0.00 | 82 | 1016.7 |
| 20260905222723 | 12 | 174 | 3.2 | 8.0 | 0.00 | 0.25 | 0.00 | 82 | 1016.6 |
| 20260905222022 | 13 | 167 | 3.2 | 6.4 | 0.00 | 0.25 | 0.00 | 82 | 1016.8 |
| 20260905220622 | 13 | 179 | 3.2 | 8.0 | 0.00 | 0.25 | 0.00 | 82 | 1016.9 |
| 20260905215922 | 13 | 170 | 4.8 | 8.0 | 0.00 | 0.33 | 0.30 | 82 | 1016.6 |
| 20260905215222 | 13 | 156 | 4.8 | 8.0 | 0.00 | 0.33 | 0.30 | 82 | 1016.5 |
| 20260905214522 | 13 | 181 | 3.2 | 9.7 | 0.00 | 0.33 | 0.30 | 82 | 1016.5 |
| 20260905213822 | 13 | 181 | 1.6 | 3.2 | 0.00 | 0.38 | 0.30 | 83 | 1016.6 |
| 20260905213122 | 13 | 173 | 1.6 | 8.0 | 0.00 | 0.38 | 0.30 | 83 | 1016.3 |
| 20260905212422 | 12 | 176 | 3.2 | 8.0 | 0.00 | 0.38 | 0.30 | 83 | 1016.4 |
| 20260905211722 | 13 | 181 | 1.6 | 9.7 | 0.00 | 0.38 | 0.30 | 83 | 1016.6 |
| 20260905211022 | 13 | 181 | 3.2 | 9.7 | 0.00 | 0.38 | 0.30 | 83 | 1016.4 |
| 20260905210322 | 13 | 178 | 3.2 | 4.8 | 0.00 | 0.43 | 0.30 | 83 | 1016.4 |
| 20260905205622 | 13 | 107 | 3.2 | 4.8 | 0.00 | 0.43 | 0.30 | 83 | 1016.3 |
| 20260905204922 | 13 | 176 | 3.2 | 11.3 | 0.00 | 0.43 | 0.30 | 84 | 1016.3 |
| 20260905202122 | 12 | 175 | 3.2 | 9.7 | 0.00 | 0.43 | 0.30 | 84 | 1015.7 |
| 20260905201422 | 12 | 181 | 3.2 | 9.7 | 0.00 | 0.43 | 0.30 | 84 | 1015.8 |
| 20260905200722 | 12 | 181 | 1.6 | 4.8 | 0.00 | 0.43 | 0.30 | 83 | 1016.1 |
| 20260905200022 | 12 | 181 | 0.0 | 1.6 | 0.00 | 0.43 | 0.30 | 83 | 1016.1 |
| 20260905195322 | 12 | 181 | 0.0 | 1.6 | 0.00 | 0.43 | 0.30 | 83 | 1016.2 |
| 20260905194622 | 12 | 0 | 0.0 | 0.0 | 0.00 | 0.43 | 0.30 | 82 | 1016.1 |
| 20260905193922 | 12 | 0 | 0.0 | 0.0 | 0.00 | 0.43 | 0.30 | 82 | 1016.1 |
| 20260905193222 | 13 | 0 | 0.0 | 0.0 | 0.00 | 0.43 | 0.30 | 81 | 1016.4 |
| 20260905192522 | 13 | 0 | 0.0 | 0.0 | 0.00 | 0.43 | 0.30 | 81 | 1016.4 |
| 20260905191122 | 13 | 0 | 0.0 | 0.0 | 0.10 | 0.43 | 0.30 | 80 | 1016.6 |
| 20260905185022 | 13 | 0 | 0.0 | 0.0 | 0.20 | 0.43 | 0.30 | 78 | 1016.7 |
| 20260905184322 | 13 | 156 | 1.6 | 9.7 | 0.20 | 0.43 | 0.30 | 78 | 1016.8 |
| 20260905183621 | 13 | 156 | 1.6 | 9.7 | 0.20 | 0.43 | 0.30 | 76 | 1016.9 |
| 20260905182922 | 14 | 0 | 0.0 | 0.0 | 0.20 | 0.43 | 0.30 | 75 | 1017.0 |
| 20260905181522 | 15 | 179 | 6.4 | 11.3 | 0.20 | 0.43 | 0.30 | 73 | 1017.2 |
| 20260905180822 | 15 | 1 | 1.6 | 11.3 | 0.00 | 0.20 | 0.10 | 71 | 1017.4 |
| 20260905180121 | 15 | 0 | 0.0 | 0.0 | 0.00 | 0.20 | 0.10 | 69 | 1016.8 |
| 20260905175421 | 15 | 0 | 0.0 | 0.0 | 0.00 | 0.20 | 0.10 | 69 | 1016.5 |
| 20260905174721 | 15 | 0 | 0.0 | 0.0 | 0.00 | 0.20 | 0.10 | 68 | 1016.7 |
| 20260905174021 | 15 | 181 | 0.0 | 1.6 | 0.00 | 0.20 | 0.10 | 67 | 1016.8 |
| 20260905173321 | 15 | 181 | 0.0 | 1.6 | 0.00 | 0.20 | 0.10 | 66 | 1016.3 |
| 20260905172621 | 15 | 0 | 0.0 | 0.0 | 0.00 | 0.20 | 0.10 | 66 | 1016.2 |
| 20260905171222 | 16 | 0 | 0.0 | 0.0 | 0.00 | 0.20 | 0.10 | 65 | 1016.0 |
| 20260905170521 | 16 | 0 | 0.0 | 0.0 | 0.00 | 0.20 | 0.10 | 64 | 1016.0 |
| 20260905165821 | 16 | 0 | 0.0 | 0.0 | 0.00 | 0.20 | 0.10 | 64 | 1016.0 |
| 20260905165121 | 16 | 0 | 0.0 | 0.0 | 0.00 | 0.20 | 0.10 | 63 | 1016.1 |
| 20260905164421 | 16 | 1 | 0.0 | 6.4 | 0.00 | 0.20 | 0.10 | 62 | 1016.3 |
| 20260905163721 | 17 | 7 | 8.0 | 11.3 | 0.00 | 0.20 | 0.10 | 60 | 1016.2 |
| 20260905163021 | 17 | 12 | 11.3 | 12.9 | 0.00 | 0.20 | 0.10 | 58 | 1016.1 |
| 20260905162321 | 18 | 13 | 6.4 | 9.7 | 0.00 | 0.20 | 0.10 | 55 | 1016.6 |
| 20260905161621 | 19 | 20 | 4.8 | 9.7 | 0.00 | 0.20 | 0.10 | 53 | 1016.3 |
| 20260905160221 | 21 | 171 | 3.2 | 12.9 | 0.00 | 0.20 | 0.10 | 45 | 1015.4 |
| 20260905155521 | 22 | 158 | 4.8 | 12.9 | 0.00 | 0.20 | 0.10 | 45 | 1015.3 |
| 20260905154821 | 22 | 37 | 6.4 | 12.9 | 0.00 | 0.20 | 0.10 | 45 | 1015.2 |
| 20260905154121 | 22 | 181 | 4.8 | 8.0 | 0.00 | 0.20 | 0.10 | 46 | 1015.3 |
| 20260905153421 | 22 | 156 | 3.2 | 8.0 | 0.00 | 0.20 | 0.10 | 46 | 1015.1 |
| 20260905152721 | 21 | 138 | 4.8 | 8.0 | 0.00 | 0.20 | 0.10 | 46 | 1015.1 |
| 20260905152021 | 21 | 64 | 4.8 | 9.7 | 0.00 | 0.20 | 0.10 | 45 | 1015.2 |
| 20260905151321 | 21 | 135 | 6.4 | 9.7 | 0.00 | 0.20 | 0.10 | 44 | 1015.1 |
| 20260905150621 | 21 | 232 | 4.8 | 9.7 | 0.00 | 0.20 | 0.10 | 44 | 1015.3 |
| 20260905145921 | 22 | 178 | 8.0 | 11.3 | 0.00 | 0.20 | 0.10 | 44 | 1015.2 |
| 20260905145221 | 21 | 184 | 9.7 | 12.9 | 0.00 | 0.20 | 0.10 | 46 | 1015.1 |
| 20260905144521 | 21 | 15 | 6.4 | 16.1 | 0.00 | 0.20 | 0.10 | 46 | 1015.2 |
| 20260905143821 | 21 | 148 | 6.4 | 9.7 | 0.00 | 0.20 | 0.10 | 46 | 1015.3 |
| 20260905143121 | 21 | 55 | 3.2 | 9.7 | 0.00 | 0.20 | 0.10 | 47 | 1015.3 |
| 20260905142421 | 21 | 5 | 6.4 | 9.7 | 0.00 | 0.20 | 0.10 | 46 | 1015.3 |
| 20260905141721 | 22 | 9 | 11.3 | 19.3 | 0.00 | 0.20 | 0.10 | 46 | 1015.3 |
| 20260905141021 | 22 | 14 | 11.3 | 19.3 | 0.00 | 0.20 | 0.10 | 45 | 1015.2 |
| 20260905135621 | 22 | 46 | 6.4 | 8.0 | 0.00 | 0.20 | 0.10 | 46 | 1015.0 |
| 20260905134221 | 22 | 130 | 3.2 | 11.3 | 0.00 | 0.20 | 0.10 | 48 | 1015.0 |
| 20260905133521 | 22 | 4 | 8.0 | 11.3 | 0.00 | 0.20 | 0.10 | 50 | 1014.8 |
| 20260905132821 | 21 | 5 | 8.0 | 11.3 | 0.00 | 0.20 | 0.10 | 51 | 1015.0 |
| 20260905132121 | 21 | 17 | 8.0 | 12.9 | 0.00 | 0.20 | 0.10 | 51 | 1014.9 |
| 20260905131421 | 21 | 3 | 11.3 | 16.1 | 0.00 | 0.20 | 0.10 | 51 | 1015.1 |
| 20260905130021 | 22 | 41 | 4.8 | 8.0 | 0.00 | 0.20 | 0.10 | 51 | 1014.9 |
| 20260905125321 | 21 | 12 | 3.2 | 6.4 | 0.00 | 0.20 | 0.10 | 51 | 1014.9 |
| 20260905124621 | 21 | 12 | 8.0 | 17.7 | 0.00 | 0.20 | 0.10 | 47 | 1014.9 |
| 20260905123921 | 22 | 13 | 4.8 | 14.5 | 0.00 | 0.20 | 0.10 | 47 | 1014.8 |
| 20260905122521 | 22 | 33 | 8.0 | 9.7 | 0.00 | 0.20 | 0.10 | 48 | 1014.7 |
| 20260905121821 | 22 | 102 | 9.7 | 11.3 | 0.00 | 0.20 | 0.10 | 49 | 1014.7 |
| 20260905121121 | 22 | 119 | 3.2 | 11.3 | 0.00 | 0.20 | 0.10 | 50 | 1014.6 |
| 20260905115721 | 21 | 181 | 3.2 | 8.0 | 0.00 | 0.20 | 0.10 | 52 | 1014.7 |
| 20260905115021 | 21 | 181 | 3.2 | 6.4 | 0.00 | 0.20 | 0.10 | 56 | 1014.7 |
| 20260905114321 | 20 | 183 | 4.8 | 6.4 | 0.00 | 0.20 | 0.10 | 55 | 1014.7 |
| 20260905113621 | 20 | 106 | 6.4 | 12.9 | 0.00 | 0.20 | 0.10 | 56 | 1014.7 |
| 20260905112921 | 20 | 35 | 8.0 | 12.9 | 0.00 | 0.20 | 0.10 | 56 | 1014.8 |
| 20260905112221 | 20 | 179 | 9.7 | 12.9 | 0.00 | 0.20 | 0.10 | 57 | 1014.7 |
| 20260905111521 | 20 | 112 | 9.7 | 14.5 | 0.00 | 0.20 | 0.10 | 58 | 1014.6 |
| 20260905110821 | 20 | 28 | 6.4 | 11.3 | 0.00 | 0.20 | 0.10 | 59 | 1014.7 |
| 20260905110120 | 20 | 8 | 9.7 | 12.9 | 0.00 | 0.20 | 0.10 | 60 | 1014.6 |
| 20260905105420 | 19 | 15 | 9.7 | 12.9 | 0.00 | 0.20 | 0.10 | 61 | 1014.7 |
| 20260905104721 | 18 | 18 | 6.4 | 20.9 | 0.00 | 0.20 | 0.10 | 62 | 1014.7 |
| 20260905103320 | 19 | 45 | 9.7 | 20.9 | 0.00 | 0.20 | 0.10 | 61 | 1014.5 |
| 20260905102621 | 18 | 30 | 4.8 | 8.0 | 0.00 | 0.20 | 0.10 | 62 | 1014.4 |
| 20260905101921 | 18 | 15 | 4.8 | 11.3 | 0.00 | 0.20 | 0.10 | 62 | 1014.3 |
| 20260905101220 | 18 | 4 | 1.6 | 11.3 | 0.00 | 0.20 | 0.10 | 63 | 1014.1 |
| 20260905100520 | 18 | 146 | 3.2 | 6.4 | 0.00 | 0.20 | 0.10 | 63 | 1014.1 |
| 20260905095820 | 18 | 185 | 8.0 | 14.5 | 0.00 | 0.20 | 0.10 | 65 | 1014.2 |
| 20260905095120 | 18 | 185 | 9.7 | 14.5 | 0.00 | 0.20 | 0.10 | 65 | 1014.2 |
| 20260905094420 | 18 | 172 | 6.4 | 16.1 | 0.00 | 0.20 | 0.10 | 66 | 1014.2 |
| 20260905093020 | 18 | 27 | 9.7 | 12.9 | 0.00 | 0.20 | 0.10 | 67 | 1014.2 |
| 20260905092320 | 18 | 172 | 9.7 | 12.9 | 0.00 | 0.20 | 0.10 | 68 | 1013.8 |
| 20260905091620 | 18 | 45 | 8.0 | 11.3 | 0.00 | 0.20 | 0.10 | 69 | 1013.8 |
| 20260905090920 | 18 | 24 | 4.8 | 11.3 | 0.00 | 0.20 | 0.10 | 70 | 1013.8 |
| 20260905090220 | 18 | 350 | 4.8 | 8.0 | 0.00 | 0.20 | 0.10 | 70 | 1013.8 |
| 20260905085520 | 18 | 213 | 6.4 | 9.7 | 0.00 | 0.20 | 0.10 | 70 | 1013.7 |
| 20260905084820 | 18 | 178 | 4.8 | 12.9 | 0.00 | 0.20 | 0.10 | 71 | 1013.9 |
| 20260905083420 | 17 | 154 | 4.8 | 11.3 | 0.00 | 0.20 | 0.10 | 72 | 1014.0 |
| 20260905082720 | 17 | 192 | 11.3 | 17.7 | 0.00 | 0.20 | 0.10 | 72 | 1013.9 |
| 20260905082020 | 17 | 177 | 4.8 | 11.3 | 0.00 | 0.20 | 0.10 | 73 | 1013.9 |
| 20260905080620 | 17 | 179 | 4.8 | 19.3 | 0.00 | 0.20 | 0.10 | 75 | 1013.8 |
| 20260905075920 | 17 | 150 | 4.8 | 9.7 | 0.00 | 0.20 | 0.10 | 76 | 1013.8 |
| 20260905075220 | 17 | 83 | 3.2 | 11.3 | 0.00 | 0.20 | 0.10 | 77 | 1013.6 |
| 20260905074520 | 16 | 28 | 6.4 | 11.3 | 0.00 | 0.20 | 0.10 | 77 | 1013.6 |
| 20260905073820 | 16 | 178 | 8.0 | 16.1 | 0.00 | 0.20 | 0.10 | 78 | 1013.4 |
| 20260905073120 | 16 | 181 | 6.4 | 16.1 | 0.00 | 0.20 | 0.10 | 78 | 1013.2 |
| 20260905072420 | 16 | 184 | 8.0 | 20.9 | 0.00 | 0.20 | 0.10 | 79 | 1013.2 |
| 20260905071720 | 16 | 97 | 8.0 | 20.9 | 0.00 | 0.20 | 0.10 | 79 | 1013.1 |
| 20260905071020 | 16 | 95 | 4.8 | 12.9 | 0.00 | 0.20 | 0.10 | 80 | 1013.0 |
| 20260905070320 | 16 | 166 | 4.8 | 12.9 | 0.00 | 0.20 | 0.10 | 80 | 1013.0 |
| 20260905065620 | 16 | 163 | 4.8 | 9.7 | 0.00 | 0.20 | 0.10 | 81 | 1012.9 |
| 20260905064920 | 16 | 181 | 4.8 | 6.4 | 0.00 | 0.20 | 0.10 | 81 | 1012.8 |
| 20260905064220 | 16 | 176 | 4.8 | 16.1 | 0.00 | 0.20 | 0.10 | 81 | 1012.7 |
| 20260905063520 | 16 | 59 | 3.2 | 11.3 | 0.00 | 0.20 | 0.10 | 82 | 1012.7 |
| 20260905062820 | 16 | 36 | 3.2 | 11.3 | 0.00 | 0.20 | 0.10 | 82 | 1012.6 |
| 20260905062120 | 16 | 130 | 3.2 | 8.0 | 0.00 | 0.20 | 0.10 | 83 | 1012.4 |
| 20260905061420 | 16 | 125 | 4.8 | 8.0 | 0.00 | 0.20 | 0.10 | 83 | 1012.3 |
| 20260905060020 | 16 | 178 | 4.8 | 11.3 | 0.00 | 0.20 | 0.10 | 83 | 1012.3 |
| 20260905055320 | 16 | 115 | 3.2 | 6.4 | 0.00 | 0.20 | 0.10 | 84 | 1012.2 |
| 20260905054620 | 16 | 168 | 6.4 | 9.7 | 0.00 | 0.20 | 0.10 | 84 | 1012.2 |
| 20260905053920 | 16 | 173 | 4.8 | 9.7 | 0.00 | 0.20 | 0.10 | 84 | 1012.0 |
| 20260905053220 | 16 | 181 | 6.4 | 8.0 | 0.00 | 0.20 | 0.10 | 85 | 1012.0 |
| 20260905051820 | 15 | 40 | 8.0 | 12.9 | 0.00 | 0.20 | 0.10 | 85 | 1011.9 |
| 20260905050420 | 15 | 23 | 6.4 | 24.1 | 0.00 | 0.20 | 0.10 | 86 | 1011.6 |
| 20260905045720 | 15 | 20 | 9.7 | 24.1 | 0.00 | 0.20 | 0.10 | 86 | 1011.4 |
| 20260905045020 | 15 | 2 | 6.4 | 9.7 | 0.00 | 0.20 | 0.10 | 87 | 1011.2 |
| 20260905044320 | 15 | 179 | 6.4 | 14.5 | 0.00 | 0.20 | 0.10 | 87 | 1011.0 |
| 20260905043620 | 15 | 188 | 4.8 | 14.5 | 0.00 | 0.20 | 0.10 | 87 | 1011.1 |
| 20260905041520 | 15 | 174 | 9.7 | 12.9 | 0.00 | 0.20 | 0.10 | 88 | 1010.8 |
| 20260905040820 | 15 | 162 | 3.2 | 8.0 | 0.00 | 0.20 | 0.10 | 88 | 1010.5 |
| 20260905035720 | 15 | 179 | 1.6 | 8.0 | 0.00 | 0.20 | 0.10 | 88 | 1010.3 |
| 20260905035020 | 15 | 181 | 1.6 | 8.0 | 0.00 | 0.20 | 0.10 | 88 | 1010.2 |
| 20260905033620 | 15 | 53 | 4.8 | 11.3 | 0.00 | 0.20 | 0.10 | 89 | 1010.1 |
| 20260905032920 | 15 | 181 | 3.2 | 8.0 | 0.00 | 0.20 | 0.10 | 89 | 1010.0 |
| 20260905025720 | 15 | 1 | 4.8 | 8.0 | 0.00 | 0.20 | 0.10 | 88 | 1009.8 |
| 20260905025020 | 15 | 168 | 11.3 | 14.5 | 0.00 | 0.20 | 0.10 | 88 | 1009.9 |
| 20260905024320 | 15 | 172 | 8.0 | 17.7 | 0.00 | 0.20 | 0.10 | 88 | 1010.0 |
| 20260905023619 | 15 | 138 | 1.6 | 17.7 | 0.00 | 0.20 | 0.10 | 88 | 1009.8 |
| 20260905022919 | 15 | 143 | 4.8 | 9.7 | 0.00 | 0.20 | 0.10 | 88 | 1010.1 |
| 20260905022219 | 15 | 176 | 8.0 | 8.0 | 0.00 | 0.20 | 0.10 | 87 | 1010.0 |
| 20260905021519 | 15 | 94 | 1.6 | 8.0 | 0.00 | 0.20 | 0.10 | 87 | 1009.5 |
| 20260905020819 | 15 | 174 | 1.6 | 8.0 | 0.00 | 0.20 | 0.10 | 87 | 1009.4 |
| 20260905015720 | 15 | 139 | 6.4 | 14.5 | 0.00 | 0.20 | 0.10 | 87 | 1009.5 |
| 20260905015020 | 15 | 181 | 11.3 | 16.1 | 0.00 | 0.20 | 0.10 | 87 | 1009.3 |
| 20260905014320 | 15 | 196 | 8.0 | 16.1 | 0.00 | 0.20 | 0.10 | 87 | 1009.4 |
| 20260905013620 | 15 | 193 | 3.2 | 12.9 | 0.00 | 0.20 | 0.10 | 87 | 1009.6 |
| 20260905012920 | 16 | 181 | 8.0 | 12.9 | 0.05 | 0.20 | 0.10 | 87 | 1009.6 |
| 20260905012220 | 16 | 182 | 6.4 | 8.0 | 0.05 | 0.20 | 0.10 | 87 | 1008.6 |
| 20260905011520 | 16 | 181 | 4.8 | 6.4 | 0.05 | 0.20 | 0.10 | 87 | 1009.1 |
| 20260905010820 | 16 | 2 | 4.8 | 11.3 | 0.05 | 0.20 | 0.10 | 87 | 1009.1 |
| 20260905005721 | 16 | 159 | 3.2 | 12.9 | 0.05 | 0.20 | 0.10 | 88 | 1009.1 |
| 20260905005021 | 16 | 159 | 4.8 | 14.5 | 0.05 | 0.20 | 0.10 | 88 | 1008.8 |
| 20260905004321 | 17 | 181 | 6.4 | 14.5 | 0.05 | 0.20 | 0.10 | 88 | 1008.7 |
| 20260905003621 | 17 | 0 | 0.0 | 0.0 | 0.05 | 0.20 | 0.10 | 88 | 1008.4 |
| 20260905002921 | 17 | 181 | 0.0 | 0.0 | 0.00 | 0.15 | 0.05 | 88 | 1008.5 |
| 20260905002221 | 17 | 201 | 1.6 | 3.2 | 0.00 | 0.15 | 0.05 | 87 | 1008.6 |
| 20260905001521 | 17 | 23 | 0.0 | 1.6 | 0.00 | 0.15 | 0.05 | 87 | 1008.5 |
| 20260905000821 | 17 | 22 | 0.0 | 1.6 | 0.00 | 0.15 | 0.05 | 87 | 1008.6 |
| 20260904235821 | 17 | 181 | 1.6 | 6.4 | 0.00 | 0.15 | 0.05 | 87 | 1007.9 |
| 20260904235121 | 17 | 181 | 3.2 | 4.8 | 0.00 | 0.15 | 0.05 | 87 | 1007.9 |
| 20260904234421 | 17 | 181 | 1.6 | 3.2 | 0.00 | 0.15 | 0.05 | 86 | 1007.8 |
| 20260904233721 | 17 | 0 | 0.0 | 0.0 | 0.00 | 0.15 | 0.05 | 86 | 1007.8 |
| 20260904233021 | 17 | 203 | 0.0 | 1.6 | 0.00 | 0.15 | 0.05 | 86 | 1007.8 |
| 20260904232321 | 17 | 203 | 0.0 | 1.6 | 0.00 | 0.15 | 0.05 | 86 | 1007.8 |
| 20260904231621 | 17 | 0 | 0.0 | 0.0 | 0.00 | 0.15 | 0.05 | 86 | 1007.7 |
| 20260904230921 | 17 | 181 | 1.6 | 4.8 | 0.00 | 0.15 | 0.05 | 86 | 1007.6 |
| 20260904230221 | 18 | 187 | 1.6 | 4.8 | 0.05 | 0.15 | 0.05 | 86 | 1007.6 |
| 20260904224121 | 18 | 0 | 0.0 | 0.0 | 0.10 | 0.15 | 0.05 | 84 | 1007.2 |